createdAt,value
2023-02-12T00:01:38.362Z,86.1
2023-02-12T00:16:47.432Z,86.2
2023-02-12T00:31:57.875Z,86.3
2023-02-12T00:47:07.399Z,86.3
2023-02-12T01:02:16.968Z,86.4
2023-02-12T01:17:26.421Z,86.5
2023-02-12T01:32:36.073Z,86.7
2023-02-12T01:47:45.418Z,86.8
2023-02-12T02:02:55.340Z,86.9
2023-02-12T02:18:06.593Z,86.8
2023-02-12T02:33:16.016Z,86.9
2023-02-12T02:48:25.378Z,86.9
2023-02-12T03:03:35.084Z,87.1
2023-02-12T03:18:44.973Z,86.8
2023-02-12T03:33:54.364Z,87.1
2023-02-12T03:49:04.111Z,86.8
2023-02-12T04:04:13.917Z,87.1
2023-02-12T04:19:23.149Z,87.6
2023-02-12T04:34:32.488Z,87.2
2023-02-12T04:49:42.175Z,87
2023-02-12T05:04:51.907Z,87.4
2023-02-12T05:20:00.634Z,87.6
2023-02-12T05:35:10.134Z,87.7
2023-02-12T05:50:19.450Z,87.7
2023-02-12T06:05:29.481Z,87.8
2023-02-12T06:20:39.029Z,87.8
2023-02-12T06:35:48.681Z,87.7
2023-02-12T06:50:59.230Z,87.7
2023-02-12T07:06:08.807Z,87.7
2023-02-12T07:21:18.684Z,87.9
2023-02-12T07:36:28.257Z,87.8
2023-02-12T07:51:37.580Z,87.7
2023-02-12T08:06:47.613Z,87.7
2023-02-12T08:21:57.672Z,87.7
2023-02-12T08:37:07.430Z,87.7
2023-02-12T08:52:17.348Z,87.6
2023-02-12T09:07:27.890Z,87.4
2023-02-12T09:22:37.601Z,87.4
2023-02-12T09:37:47.716Z,87.3
2023-02-12T09:52:57.548Z,87.2
2023-02-12T10:08:08.480Z,87.2
2023-02-12T10:23:24.616Z,87.4
2023-02-12T10:38:34.518Z,87.2
2023-02-12T10:53:44.302Z,87.3
2023-02-12T11:08:53.716Z,87.1
2023-02-12T11:24:05.465Z,87.2
2023-02-12T11:39:14.995Z,87.2
2023-02-12T11:54:24.737Z,87.4
2023-02-12T12:09:34.309Z,87.5
2023-02-12T12:24:43.743Z,87.7
2023-02-12T12:39:53.042Z,87.7
2023-02-12T12:55:04.440Z,87.7
2023-02-12T13:10:14.097Z,87.8
2023-02-12T13:25:23.836Z,87.7
2023-02-12T13:40:33.395Z,87.7
2023-02-12T13:55:43.296Z,87.8
2023-02-12T14:10:53.090Z,87.5
2023-02-12T14:26:02.899Z,87.6
2023-02-12T14:41:12.252Z,87.7
2023-02-12T14:56:22.038Z,87.8
2023-02-12T15:11:31.683Z,88
2023-02-12T15:26:42.441Z,88
2023-02-12T15:41:51.963Z,88
2023-02-12T15:57:01.522Z,88.1
2023-02-12T16:12:11.180Z,88.1
2023-02-12T16:29:42.772Z,86.4
2023-02-12T16:44:54.219Z,88.7
2023-02-12T17:00:03.530Z,88.5
2023-02-12T17:15:13.159Z,88.4
2023-02-12T17:30:22.829Z,88.4
2023-02-12T17:45:32.859Z,88.4
2023-02-12T18:05:09.301Z,85.7
2023-02-12T18:20:21.939Z,89.4
2023-02-12T18:35:32.912Z,89.1
2023-02-12T18:50:42.384Z,88.9
2023-02-12T19:05:52.052Z,88.7
2023-02-12T19:21:01.548Z,88.5
2023-02-12T19:36:11.073Z,88.5
2023-02-12T19:51:20.937Z,88.5
2023-02-12T20:06:31.121Z,88.4
2023-02-12T20:21:40.758Z,88.4
2023-02-12T20:36:50.233Z,88.4
2023-02-12T20:51:59.886Z,88.4
2023-02-12T21:07:09.887Z,88.4
2023-02-12T21:22:19.372Z,88.4
2023-02-12T21:37:29.282Z,88.4
2023-02-12T21:52:38.902Z,88.4
2023-02-12T22:07:48.364Z,88.4
2023-02-12T22:22:57.768Z,88.5
2023-02-12T22:38:07.986Z,88.4
2023-02-12T22:53:17.705Z,88.5
2023-02-12T23:08:27.379Z,88.5
2023-02-12T23:23:37.194Z,88.5
2023-02-12T23:38:46.916Z,87.1
2023-02-12T23:53:56.266Z,88.5
